createdAt,value
2022-08-04T00:01:40.383Z,25.56
2022-08-04T00:04:20.466Z,25.56
2022-08-04T00:07:03.013Z,25.53
2022-08-04T00:09:40.588Z,25.59
2022-08-04T00:12:12.347Z,25.52
2022-08-04T00:14:49.360Z,25.48
2022-08-04T00:17:22.746Z,25.51
2022-08-04T00:19:57.329Z,25.46
2022-08-04T00:22:30.592Z,25.43
2022-08-04T00:25:02.517Z,25.40
2022-08-04T00:27:31.226Z,25.39
2022-08-04T00:30:00.197Z,25.39
2022-08-04T00:32:34.646Z,25.43
2022-08-04T00:35:03.935Z,25.44
2022-08-04T00:37:34.849Z,25.48
2022-08-04T00:40:10.400Z,25.46
2022-08-04T00:42:58.403Z,25.46
2022-08-04T00:46:16.118Z,25.43
2022-08-04T00:49:16.680Z,25.38
2022-08-04T00:52:31.987Z,25.37
2022-08-04T00:54:57.602Z,25.33
2022-08-04T00:57:37.675Z,25.30
2022-08-04T01:00:10.891Z,25.27
2022-08-04T01:02:52.618Z,25.26
2022-08-04T01:05:37.640Z,25.32
2022-08-04T01:08:27.712Z,25.26
2022-08-04T01:11:12.731Z,25.29
2022-08-04T01:14:09.969Z,25.29
2022-08-04T01:16:51.022Z,25.32
2022-08-04T01:19:49.885Z,25.30
2022-08-04T01:23:00.532Z,25.29
2022-08-04T01:26:00.125Z,25.25
2022-08-04T01:28:42.437Z,25.31
2022-08-04T01:31:22.787Z,25.35
2022-08-04T01:33:58.468Z,25.36
2022-08-04T01:36:35.913Z,25.37
2022-08-04T01:39:25.751Z,25.34
2022-08-04T01:41:57.693Z,25.27
2022-08-04T01:44:29.595Z,25.24
2022-08-04T01:47:01.376Z,25.18
2022-08-04T01:49:40.583Z,25.13
2022-08-04T01:52:12.036Z,25.17
2022-08-04T01:54:43.275Z,25.03
2022-08-04T01:57:45.967Z,24.96
2022-08-04T02:00:02.081Z,24.87
2022-08-04T02:02:34.327Z,24.85
2022-08-04T02:05:02.761Z,24.82
2022-08-04T02:07:51.301Z,24.77
2022-08-04T02:10:29.226Z,24.69
2022-08-04T02:13:12.425Z,24.71
2022-08-04T02:15:54.451Z,24.69
2022-08-04T02:18:31.622Z,24.70
2022-08-04T02:21:02.018Z,24.63
2022-08-04T02:23:38.811Z,24.65
2022-08-04T02:26:19.304Z,24.63
2022-08-04T02:29:01.966Z,24.61
2022-08-04T02:31:34.400Z,24.55
2022-08-04T02:34:13.741Z,24.58
2022-08-04T02:36:43.898Z,24.59
2022-08-04T02:39:13.783Z,24.50
2022-08-04T02:41:42.349Z,24.46
2022-08-04T02:44:11.447Z,24.44
2022-08-04T02:46:42.322Z,24.37
2022-08-04T02:49:12.424Z,24.36
2022-08-04T02:51:43.645Z,24.35
2022-08-04T02:54:12.165Z,24.30
2022-08-04T02:56:41.789Z,24.30
2022-08-04T02:59:12.743Z,24.31
2022-08-04T03:01:57.600Z,24.35
2022-08-04T03:04:46.119Z,24.30
2022-08-04T03:07:46.632Z,24.27
2022-08-04T03:10:58.058Z,24.19
2022-08-04T03:13:59.087Z,24.22
2022-08-04T03:16:52.893Z,24.11
2022-08-04T03:20:11.655Z,24.13
2022-08-04T03:23:14.268Z,24.17
2022-08-04T03:26:24.215Z,24.21
2022-08-04T03:29:47.152Z,24.10
2022-08-04T03:33:37.035Z,24.05
2022-08-04T03:37:18.804Z,24.07
2022-08-04T03:40:36.528Z,24.03
2022-08-04T03:43:57.889Z,24.02
2022-08-04T03:47:06.797Z,23.97
2022-08-04T03:50:23.831Z,23.89
2022-08-04T03:53:34.480Z,23.92
2022-08-04T03:56:50.165Z,23.92
2022-08-04T03:59:49.136Z,23.90
2022-08-04T04:02:59.083Z,23.90
2022-08-04T04:06:15.104Z,23.82
2022-08-04T04:09:03.688Z,23.79
2022-08-04T04:12:04.360Z,23.80
2022-08-04T04:14:54.700Z,23.75
2022-08-04T04:17:52.065Z,23.77
2022-08-04T04:21:00.003Z,23.69
2022-08-04T04:24:13.831Z,23.64
2022-08-04T04:26:59.989Z,23.66
2022-08-04T04:29:59.451Z,23.66
2022-08-04T04:32:53.969Z,23.66
2022-08-04T04:35:38.526Z,23.69
2022-08-04T04:38:31.765Z,23.75
2022-08-04T04:41:32.435Z,23.76
2022-08-04T04:44:42.787Z,23.83
2022-08-04T04:47:16.997Z,23.81
2022-08-04T04:50:14.438Z,23.86
2022-08-04T04:52:48.757Z,23.90
2022-08-04T04:55:23.579Z,23.94
2022-08-04T04:57:57.667Z,23.97
2022-08-04T05:00:43.248Z,23.98
2022-08-04T05:03:50.998Z,24.01
2022-08-04T05:06:54.239Z,24.01
2022-08-04T05:09:44.193Z,24.07
2022-08-04T05:14:31.420Z,24.12
2022-08-04T05:15:46.443Z,24.18
2022-08-04T05:18:23.254Z,24.24
2022-08-04T05:20:59.415Z,24.27
2022-08-04T05:23:31.715Z,24.29
2022-08-04T05:26:06.068Z,24.35
2022-08-04T05:28:40.344Z,24.39
2022-08-04T05:31:16.901Z,24.43
2022-08-04T05:33:49.961Z,24.48
2022-08-04T05:36:40.156Z,24.52
2022-08-04T05:39:14.121Z,24.54
2022-08-04T05:41:45.555Z,24.58
2022-08-04T05:44:17.854Z,24.59
2022-08-04T05:46:53.679Z,24.64
2022-08-04T05:49:24.477Z,24.69
2022-08-04T05:51:55.655Z,24.75
2022-08-04T05:54:25.545Z,24.81
2022-08-04T05:56:55.279Z,24.87
2022-08-04T05:59:25.609Z,24.93
2022-08-04T06:01:58.803Z,25.01
2022-08-04T06:04:36.372Z,25.09
2022-08-04T06:07:04.902Z,25.15
2022-08-04T06:09:33.515Z,25.22
2022-08-04T06:12:05.005Z,25.31
2022-08-04T06:14:44.581Z,25.38
2022-08-04T06:19:56.326Z,25.46
2022-08-04T06:20:19.037Z,25.46
2022-08-04T06:22:55.097Z,25.54
2022-08-04T06:25:30.625Z,25.65
2022-08-04T06:28:00.694Z,25.70
2022-08-04T06:30:32.396Z,25.79
2022-08-04T06:33:13.392Z,25.90
2022-08-04T06:35:42.637Z,25.95
2022-08-04T06:38:12.311Z,26.01
2022-08-04T06:40:40.875Z,26.09
2022-08-04T06:43:09.255Z,26.19
2022-08-04T06:45:41.243Z,26.29
2022-08-04T06:48:16.871Z,26.35
2022-08-04T06:51:25.045Z,26.48
2022-08-04T06:53:37.113Z,26.54
2022-08-04T06:56:06.107Z,26.66
2022-08-04T06:58:35.071Z,26.83
2022-08-04T07:01:05.216Z,26.95
2022-08-04T07:03:35.913Z,27.16
2022-08-04T07:06:14.058Z,27.28
2022-08-04T07:08:43.927Z,27.41
2022-08-04T07:11:13.351Z,27.57
2022-08-04T07:13:45.201Z,27.67
2022-08-04T07:16:16.480Z,27.84
2022-08-04T07:18:46.032Z,27.94
2022-08-04T07:21:23.728Z,28.07
2022-08-04T07:23:52.241Z,28.13
2022-08-04T07:26:20.400Z,28.23
2022-08-04T07:28:48.541Z,28.32
2022-08-04T07:31:33.128Z,28.40
2022-08-04T07:34:11.572Z,28.50
2022-08-04T07:36:53.120Z,28.60
2022-08-04T07:39:28.537Z,28.78
2022-08-04T07:42:03.921Z,28.96
2022-08-04T07:44:33.032Z,29.04
2022-08-04T07:47:02.454Z,29.11
2022-08-04T07:49:56.301Z,29.20
2022-08-04T07:52:21.715Z,29.29
2022-08-04T07:54:51.437Z,29.40
2022-08-04T07:57:41.796Z,29.53
2022-08-04T08:00:10.991Z,29.69
2022-08-04T08:02:42.797Z,29.77
2022-08-04T08:05:16.750Z,29.84
2022-08-04T08:07:50.432Z,29.85
2022-08-04T08:10:24.072Z,29.94
2022-08-04T08:12:52.824Z,30.00
2022-08-04T08:15:21.961Z,30.11
2022-08-04T08:17:58.640Z,30.30
2022-08-04T08:20:31.891Z,30.48
2022-08-04T08:23:01.795Z,30.55
2022-08-04T08:25:32.209Z,30.59
2022-08-04T08:28:00.862Z,30.69
2022-08-04T08:30:31.471Z,30.88
2022-08-04T08:33:05.573Z,31.00
2022-08-04T08:35:54.817Z,31.14
2022-08-04T08:38:39.798Z,31.28
2022-08-04T08:42:05.793Z,31.41
2022-08-04T08:45:17.948Z,31.52
2022-08-04T08:48:28.585Z,31.65
2022-08-04T08:51:38.729Z,31.72
2022-08-04T08:54:40.100Z,31.96
2022-08-04T08:57:34.883Z,31.97
2022-08-04T09:00:18.871Z,32.17
2022-08-04T09:03:28.074Z,32.13
2022-08-04T09:06:29.072Z,32.13
2022-08-04T09:09:14.903Z,32.09
2022-08-04T09:11:50.940Z,32.28
2022-08-04T09:14:25.778Z,32.48
2022-08-04T09:17:02.684Z,32.81
2022-08-04T09:19:40.524Z,33.08
2022-08-04T09:22:21.485Z,33.12
2022-08-04T09:24:58.695Z,33.15
2022-08-04T09:27:36.480Z,33.05
2022-08-04T09:30:06.972Z,33.08
2022-08-04T09:32:53.057Z,33.05
2022-08-04T09:35:34.314Z,33.07
2022-08-04T09:38:17.369Z,33.16
2022-08-04T09:40:57.088Z,33.18
2022-08-04T09:43:59.012Z,33.23
2022-08-04T09:46:41.578Z,33.22
2022-08-04T09:49:18.818Z,33.26
2022-08-04T09:52:08.570Z,33.35
2022-08-04T09:54:52.658Z,33.50
2022-08-04T09:57:40.091Z,33.56
2022-08-04T10:00:16.508Z,33.73
2022-08-04T10:02:51.821Z,33.76
2022-08-04T10:05:26.186Z,33.76
2022-08-04T10:08:17.253Z,34.04
2022-08-04T10:11:00.881Z,34.20
2022-08-04T10:13:48.709Z,34.19
2022-08-04T10:16:38.773Z,34.28
2022-08-04T10:19:25.507Z,34.25
2022-08-04T10:22:29.826Z,34.30
2022-08-04T10:25:44.452Z,34.41
2022-08-04T10:28:10.128Z,34.28
2022-08-04T10:30:44.170Z,34.31
2022-08-04T10:33:24.088Z,34.36
2022-08-04T10:36:01.131Z,34.40
2022-08-04T10:38:40.639Z,34.56
2022-08-04T10:41:17.931Z,34.62
2022-08-04T10:43:57.593Z,34.79
2022-08-04T10:46:32.129Z,34.88
2022-08-04T10:49:05.316Z,34.99
2022-08-04T10:51:57.263Z,34.95
2022-08-04T10:54:35.039Z,34.94
2022-08-04T10:57:12.109Z,34.91
2022-08-04T10:59:52.354Z,34.99
2022-08-04T11:02:44.193Z,34.93
2022-08-04T11:05:30.109Z,34.93
2022-08-04T11:08:07.682Z,34.99
2022-08-04T11:10:46.448Z,35.16
2022-08-04T11:13:29.409Z,35.05
2022-08-04T11:16:06.139Z,35.11
2022-08-04T11:18:54.618Z,35.06
2022-08-04T11:21:33.172Z,35.08
2022-08-04T11:24:07.767Z,35.07
2022-08-04T11:26:46.839Z,35.06
2022-08-04T11:29:26.595Z,35.08
2022-08-04T11:32:03.138Z,35.11
2022-08-04T11:34:35.204Z,35.12
2022-08-04T11:37:14.035Z,35.13
2022-08-04T11:39:49.909Z,35.04
2022-08-04T11:42:24.461Z,35.15
2022-08-04T11:45:00.660Z,35.20
2022-08-04T11:47:33.963Z,35.25
2022-08-04T11:50:09.658Z,35.31
2022-08-04T11:52:43.495Z,35.36
2022-08-04T11:55:16.383Z,35.43
2022-08-04T11:57:45.462Z,35.52
2022-08-04T12:00:23.308Z,35.51
2022-08-04T12:03:13.481Z,35.50
2022-08-04T12:05:52.499Z,35.64
2022-08-04T12:08:37.323Z,35.62
2022-08-04T12:11:22.561Z,35.66
2022-08-04T12:14:05.350Z,35.65
2022-08-04T12:16:43.367Z,35.74
2022-08-04T12:19:22.569Z,35.68
2022-08-04T12:21:59.952Z,35.69
2022-08-04T12:24:35.316Z,35.54
2022-08-04T12:27:18.170Z,35.57
2022-08-04T12:30:54.167Z,35.48
2022-08-04T12:32:48.379Z,35.50
2022-08-04T12:35:30.816Z,35.51
2022-08-04T12:38:05.948Z,35.40
2022-08-04T12:40:41.694Z,35.21
2022-08-04T12:43:16.002Z,35.23
2022-08-04T12:45:48.549Z,35.16
2022-08-04T12:48:21.370Z,35.19
2022-08-04T12:50:54.778Z,35.24
2022-08-04T12:53:31.832Z,35.18
2022-08-04T12:56:02.626Z,35.32
2022-08-04T12:58:41.826Z,35.36
2022-08-04T13:02:08.470Z,35.30
2022-08-04T13:04:12.960Z,35.33
2022-08-04T13:06:44.423Z,35.27
2022-08-04T13:09:20.119Z,35.38
2022-08-04T13:11:54.987Z,35.35
2022-08-04T13:14:27.628Z,35.35
2022-08-04T13:17:00.070Z,35.43
2022-08-04T13:19:29.609Z,35.55
2022-08-04T13:22:02.868Z,35.44
2022-08-04T13:24:56.241Z,35.36
2022-08-04T13:27:24.362Z,35.19
2022-08-04T13:29:59.932Z,35.15
2022-08-04T13:32:34.827Z,34.95
2022-08-04T13:35:05.784Z,34.95
2022-08-04T13:37:39.105Z,35.00
2022-08-04T13:40:12.878Z,35.03
2022-08-04T13:42:47.462Z,35.12
2022-08-04T13:45:19.809Z,34.93
2022-08-04T13:47:51.593Z,34.81
2022-08-04T13:50:26.188Z,34.80
2022-08-04T13:52:57.831Z,34.88
2022-08-04T13:55:30.190Z,34.97
2022-08-04T13:58:05.138Z,35.08
2022-08-04T14:00:46.390Z,35.06
2022-08-04T14:03:26.068Z,34.99
2022-08-04T14:06:17.987Z,34.95
2022-08-04T14:08:54.779Z,34.92
2022-08-04T14:12:09.022Z,34.89
2022-08-04T14:14:24.472Z,34.76
2022-08-04T14:17:02.281Z,34.74
2022-08-04T14:19:49.007Z,34.76
2022-08-04T14:22:34.665Z,34.78
2022-08-04T14:25:15.800Z,34.80
2022-08-04T14:27:48.500Z,34.69
2022-08-04T14:30:26.590Z,34.59
2022-08-04T14:34:01.141Z,34.61
2022-08-04T14:35:59.462Z,34.62
2022-08-04T14:38:46.585Z,34.63
2022-08-04T14:41:18.979Z,34.44
2022-08-04T14:43:50.156Z,34.35
2022-08-04T14:46:19.065Z,34.34
2022-08-04T14:49:10.433Z,34.33
2022-08-04T14:51:42.173Z,34.35
2022-08-04T14:54:17.690Z,34.49
2022-08-04T14:56:57.858Z,34.52
2022-08-04T14:59:27.238Z,34.68
2022-08-04T15:02:00.148Z,34.63
2022-08-04T15:04:31.215Z,34.51
2022-08-04T15:07:00.430Z,34.39
2022-08-04T15:09:29.630Z,34.40
2022-08-04T15:11:59.165Z,34.36
2022-08-04T15:14:36.753Z,34.42
2022-08-04T15:17:27.162Z,34.29
2022-08-04T15:19:57.524Z,34.08
2022-08-04T15:22:25.651Z,34.00
2022-08-04T15:24:55.488Z,33.97
2022-08-04T15:27:29.818Z,33.98
2022-08-04T15:30:02.990Z,34.03
2022-08-04T15:32:33.226Z,34.09
2022-08-04T15:35:10.533Z,34.02
2022-08-04T15:37:53.331Z,33.99
2022-08-04T15:40:33.519Z,34.03
2022-08-04T15:43:22.636Z,34.05
2022-08-04T15:46:34.923Z,34.08
2022-08-04T15:48:41.296Z,34.08
2022-08-04T15:51:15.209Z,34.14
2022-08-04T15:54:30.753Z,34.09
2022-08-04T15:57:02.719Z,34.08
2022-08-04T16:00:11.283Z,34.00
2022-08-04T16:02:44.205Z,33.93
2022-08-04T16:05:45.559Z,33.93
2022-08-04T16:08:18.039Z,33.92
2022-08-04T16:10:50.704Z,34.02
2022-08-04T16:13:22.278Z,33.98
2022-08-04T16:15:54.549Z,34.11
2022-08-04T16:18:43.535Z,34.15
2022-08-04T16:21:24.730Z,34.19
2022-08-04T16:24:22.130Z,34.11
2022-08-04T16:26:56.866Z,34.09
2022-08-04T16:29:35.050Z,34.09
2022-08-04T16:32:22.903Z,33.92
2022-08-04T16:34:59.590Z,33.90
2022-08-04T16:37:37.590Z,33.89
2022-08-04T16:40:36.978Z,33.97
2022-08-04T16:43:09.683Z,34.06
2022-08-04T16:45:46.887Z,33.97
2022-08-04T16:48:17.672Z,33.98
2022-08-04T16:51:07.365Z,33.81
2022-08-04T16:53:53.316Z,33.78
2022-08-04T16:56:32.963Z,33.75
2022-08-04T16:59:09.019Z,33.66
2022-08-04T17:01:37.803Z,33.59
2022-08-04T17:04:07.767Z,33.56
2022-08-04T17:06:39.343Z,33.56
2022-08-04T17:09:13.593Z,33.50
2022-08-04T17:11:42.655Z,33.46
2022-08-04T17:14:11.035Z,33.49
2022-08-04T17:16:41.753Z,33.44
2022-08-04T17:19:24.140Z,33.43
2022-08-04T17:22:04.423Z,33.36
2022-08-04T17:24:34.981Z,33.31
2022-08-04T17:27:04.430Z,33.28
2022-08-04T17:29:51.697Z,33.27
2022-08-04T17:32:23.113Z,33.24
2022-08-04T17:34:57.187Z,33.23
2022-08-04T17:37:38.046Z,33.22
2022-08-04T17:40:13.989Z,33.21
2022-08-04T17:42:45.235Z,33.21
2022-08-04T17:48:24.602Z,33.12
2022-08-04T17:50:54.685Z,33.04
2022-08-04T17:54:02.907Z,33.05
2022-08-04T17:56:43.083Z,33.01
2022-08-04T17:59:56.931Z,32.93
2022-08-04T18:02:12.098Z,32.85
2022-08-04T18:05:07.163Z,32.83
2022-08-04T18:08:39.958Z,32.79
2022-08-04T18:10:51.755Z,32.74
2022-08-04T18:13:26.846Z,32.70
2022-08-04T18:16:04.616Z,32.67
2022-08-04T18:18:33.052Z,32.60
2022-08-04T18:21:03.415Z,32.54
2022-08-04T18:23:34.249Z,32.50
2022-08-04T18:26:11.601Z,32.40
2022-08-04T18:28:42.246Z,32.40
2022-08-04T18:31:10.276Z,32.33
2022-08-04T18:33:41.527Z,32.31
2022-08-04T18:36:34.877Z,32.27
2022-08-04T18:39:12.533Z,32.24
2022-08-04T18:42:00.783Z,32.16
2022-08-04T18:44:31.579Z,32.11
2022-08-04T18:52:36.720Z,31.95
2022-08-04T18:55:55.631Z,31.92
2022-08-04T18:58:07.197Z,31.83
2022-08-04T19:00:36.637Z,31.76
2022-08-04T19:03:05.452Z,31.71
2022-08-04T19:05:38.079Z,31.65
2022-08-04T19:08:33.345Z,31.61
2022-08-04T19:11:01.108Z,31.54
2022-08-04T19:16:40.670Z,31.43
2022-08-04T19:19:10.319Z,31.37
2022-08-04T19:21:59.617Z,31.33
2022-08-04T19:24:34.069Z,31.25
2022-08-04T19:27:08.285Z,31.15
2022-08-04T19:29:41.243Z,31.03
2022-08-04T19:32:14.577Z,30.87
2022-08-04T19:34:47.073Z,30.75
2022-08-04T19:37:57.435Z,30.65
2022-08-04T19:40:09.533Z,30.54
2022-08-04T19:42:40.270Z,30.50
2022-08-04T19:45:15.876Z,30.45
2022-08-04T19:48:21.577Z,30.19
2022-08-04T19:50:33.226Z,30.21
2022-08-04T19:53:01.528Z,30.22
2022-08-04T19:55:37.371Z,30.17
2022-08-04T19:58:09.524Z,30.12
2022-08-04T20:00:39.229Z,30.12
2022-08-04T20:03:11.711Z,30.08
2022-08-04T20:05:53.642Z,29.98
2022-08-04T20:08:28.339Z,30.01
2022-08-04T20:10:56.605Z,29.96
2022-08-04T20:13:37.279Z,29.87
2022-08-04T20:16:26.213Z,29.71
2022-08-04T20:19:00.845Z,29.72
2022-08-04T20:24:39.201Z,29.77
2022-08-04T20:27:11.600Z,29.75
2022-08-04T20:32:35.198Z,29.70
2022-08-04T20:35:03.881Z,29.63
2022-08-04T20:37:55.504Z,29.54
2022-08-04T20:40:20.152Z,29.44
2022-08-04T20:42:50.408Z,29.37
2022-08-04T20:45:22.781Z,29.32
2022-08-04T20:47:53.209Z,29.24
2022-08-04T20:50:29.646Z,29.18
2022-08-04T20:52:58.166Z,29.18
2022-08-04T20:55:29.527Z,29.16
2022-08-04T20:58:03.196Z,29.10
2022-08-04T21:00:33.612Z,29.11
2022-08-04T21:03:02.807Z,29.10
2022-08-04T21:05:31.501Z,29.08
2022-08-04T21:08:00.202Z,29.06
2022-08-04T21:10:30.402Z,29.04
2022-08-04T21:12:59.140Z,28.98
2022-08-04T21:15:57.832Z,28.93
2022-08-04T21:18:17.173Z,28.88
2022-08-04T21:20:48.245Z,28.84
2022-08-04T21:23:16.668Z,28.80
2022-08-04T21:25:45.589Z,28.76
2022-08-04T21:28:20.573Z,28.71
2022-08-04T21:30:52.408Z,28.70
2022-08-04T21:33:50.044Z,28.67
2022-08-04T21:36:14.893Z,28.65
2022-08-04T21:38:51.225Z,28.65
2022-08-04T21:41:24.771Z,28.64
2022-08-04T21:43:53.554Z,28.60
2022-08-04T21:46:22.304Z,28.58
2022-08-04T21:48:51.962Z,28.55
2022-08-04T21:51:57.066Z,28.53
2022-08-04T21:54:15.121Z,28.48
2022-08-04T21:56:51.570Z,28.44
2022-08-04T21:59:23.540Z,28.34
2022-08-04T22:02:00.993Z,28.24
2022-08-04T22:04:31.375Z,28.16
2022-08-04T22:07:03.038Z,28.09
2022-08-04T22:09:40.866Z,28.03
2022-08-04T22:12:11.968Z,28.04
2022-08-04T22:14:40.658Z,27.99
2022-08-04T22:17:13.712Z,27.98
2022-08-04T22:19:55.744Z,27.94
2022-08-04T22:22:29.100Z,27.87
2022-08-04T22:25:01.796Z,27.83
2022-08-04T22:27:55.125Z,27.77
2022-08-04T22:30:24.210Z,27.72
2022-08-04T22:32:57.339Z,27.71
2022-08-04T22:35:30.939Z,27.67
2022-08-04T22:38:25.338Z,27.62
2022-08-04T22:41:02.798Z,27.58
2022-08-04T22:43:34.408Z,27.51
2022-08-04T22:46:06.380Z,27.51
2022-08-04T22:48:36.906Z,27.54
2022-08-04T22:51:08.298Z,27.51
2022-08-04T22:53:37.230Z,27.49
2022-08-04T22:56:09.946Z,27.45
2022-08-04T22:58:45.311Z,27.42
2022-08-04T23:01:15.564Z,27.37
2022-08-04T23:03:55.041Z,27.31
2022-08-04T23:06:28.731Z,27.28
2022-08-04T23:08:57.455Z,27.21
2022-08-04T23:11:35.627Z,27.20
2022-08-04T23:14:06.055Z,27.15
2022-08-04T23:16:40.770Z,27.13
2022-08-04T23:19:15.162Z,27.16
2022-08-04T23:21:47.987Z,27.12
2022-08-04T23:24:30.268Z,27.06
2022-08-04T23:26:58.753Z,27.04
2022-08-04T23:29:27.402Z,27.03
2022-08-04T23:32:00.004Z,26.99
2022-08-04T23:34:29.446Z,26.92
2022-08-04T23:36:59.472Z,26.87
2022-08-04T23:40:03.899Z,26.83
2022-08-04T23:42:21.332Z,26.79
2022-08-04T23:44:50.290Z,26.82
2022-08-04T23:48:16.192Z,26.79
2022-08-04T23:50:09.766Z,26.73
2022-08-04T23:52:39.153Z,26.67
2022-08-04T23:55:18.888Z,26.68
2022-08-04T23:58:16.830Z,26.67
